sensor_id;sensor_type;location;lat;lon;timestamp;P1;durP1;ratioP1;P2;durP2;ratioP2
32319;SDS011;19080;51.750;5.888;2023-06-04T00:02:16;5.20;;;1.92;;
32319;SDS011;19080;51.750;5.888;2023-06-04T00:04:43;4.05;;;1.60;;
32319;SDS011;19080;51.750;5.888;2023-06-04T00:07:09;5.72;;;1.73;;
32319;SDS011;19080;51.750;5.888;2023-06-04T00:09:36;4.60;;;2.15;;
32319;SDS011;19080;51.750;5.888;2023-06-04T00:12:03;1.75;;;1.65;;
32319;SDS011;19080;51.750;5.888;2023-06-04T00:14:30;2.42;;;1.73;;
32319;SDS011;19080;51.750;5.888;2023-06-04T00:16:57;5.05;;;2.22;;
32319;SDS011;19080;51.750;5.888;2023-06-04T00:19:24;3.50;;;1.88;;
32319;SDS011;19080;51.750;5.888;2023-06-04T00:21:51;6.60;;;2.13;;
32319;SDS011;19080;51.750;5.888;2023-06-04T00:24:17;1.85;;;1.70;;
32319;SDS011;19080;51.750;5.888;2023-06-04T00:26:44;2.90;;;1.75;;
32319;SDS011;19080;51.750;5.888;2023-06-04T00:29:12;3.35;;;1.90;;
32319;SDS011;19080;51.750;5.888;2023-06-04T00:31:39;3.20;;;2.25;;
32319;SDS011;19080;51.750;5.888;2023-06-04T00:34:05;2.08;;;1.40;;
32319;SDS011;19080;51.750;5.888;2023-06-04T00:36:32;4.60;;;1.80;;
32319;SDS011;19080;51.750;5.888;2023-06-04T00:38:59;2.97;;;1.70;;
32319;SDS011;19080;51.750;5.888;2023-06-04T00:41:26;3.10;;;1.55;;
32319;SDS011;19080;51.750;5.888;2023-06-04T00:43:52;4.07;;;1.90;;
32319;SDS011;19080;51.750;5.888;2023-06-04T00:46:23;4.00;;;1.85;;
32319;SDS011;19080;51.750;5.888;2023-06-04T00:48:52;4.57;;;1.60;;
32319;SDS011;19080;51.750;5.888;2023-06-04T00:51:19;2.78;;;1.75;;
32319;SDS011;19080;51.750;5.888;2023-06-04T00:53:49;2.65;;;1.80;;
32319;SDS011;19080;51.750;5.888;2023-06-04T00:56:18;4.90;;;1.98;;
32319;SDS011;19080;51.750;5.888;2023-06-04T00:58:45;2.85;;;1.63;;
32319;SDS011;19080;51.750;5.888;2023-06-04T01:01:39;5.28;;;1.42;;
32319;SDS011;19080;51.750;5.888;2023-06-04T01:04:09;4.97;;;2.10;;
32319;SDS011;19080;51.750;5.888;2023-06-04T01:06:47;4.18;;;1.77;;
32319;SDS011;19080;51.750;5.888;2023-06-04T01:09:16;4.13;;;1.83;;
32319;SDS011;19080;51.750;5.888;2023-06-04T01:11:44;3.30;;;1.90;;
32319;SDS011;19080;51.750;5.888;2023-06-04T01:14:11;3.30;;;1.77;;
32319;SDS011;19080;51.750;5.888;2023-06-04T01:16:49;4.30;;;1.98;;
32319;SDS011;19080;51.750;5.888;2023-06-04T01:22:27;2.83;;;1.77;;
32319;SDS011;19080;51.750;5.888;2023-06-04T01:25:02;3.75;;;1.83;;
32319;SDS011;19080;51.750;5.888;2023-06-04T01:27:30;3.30;;;1.70;;
32319;SDS011;19080;51.750;5.888;2023-06-04T01:29:58;4.05;;;1.65;;
32319;SDS011;19080;51.750;5.888;2023-06-04T01:32:26;4.72;;;2.00;;
32319;SDS011;19080;51.750;5.888;2023-06-04T01:34:54;2.65;;;1.77;;
32319;SDS011;19080;51.750;5.888;2023-06-04T01:37:21;3.08;;;1.75;;
32319;SDS011;19080;51.750;5.888;2023-06-04T01:39:48;2.60;;;1.70;;
32319;SDS011;19080;51.750;5.888;2023-06-04T01:42:14;4.72;;;1.95;;
32319;SDS011;19080;51.750;5.888;2023-06-04T01:44:41;4.90;;;1.75;;
32319;SDS011;19080;51.750;5.888;2023-06-04T01:47:08;2.17;;;1.67;;
32319;SDS011;19080;51.750;5.888;2023-06-04T01:49:34;3.13;;;1.75;;
32319;SDS011;19080;51.750;5.888;2023-06-04T01:52:01;1.73;;;1.60;;
32319;SDS011;19080;51.750;5.888;2023-06-04T01:54:27;4.15;;;1.52;;
32319;SDS011;19080;51.750;5.888;2023-06-04T01:56:56;3.05;;;1.60;;
32319;SDS011;19080;51.750;5.888;2023-06-04T01:59:23;3.00;;;1.83;;
32319;SDS011;19080;51.750;5.888;2023-06-04T02:01:49;6.25;;;1.88;;
32319;SDS011;19080;51.750;5.888;2023-06-04T02:04:16;2.58;;;1.80;;
32319;SDS011;19080;51.750;5.888;2023-06-04T02:06:43;3.20;;;2.00;;
32319;SDS011;19080;51.750;5.888;2023-06-04T02:09:09;5.95;;;2.15;;
32319;SDS011;19080;51.750;5.888;2023-06-04T02:11:36;4.45;;;1.75;;
32319;SDS011;19080;51.750;5.888;2023-06-04T02:14:02;4.05;;;2.38;;
32319;SDS011;19080;51.750;5.888;2023-06-04T02:16:29;2.60;;;1.60;;
32319;SDS011;19080;51.750;5.888;2023-06-04T02:18:56;3.97;;;1.90;;
32319;SDS011;19080;51.750;5.888;2023-06-04T02:21:25;5.82;;;2.38;;
32319;SDS011;19080;51.750;5.888;2023-06-04T02:23:52;4.95;;;2.13;;
32319;SDS011;19080;51.750;5.888;2023-06-04T02:26:19;2.53;;;2.00;;
32319;SDS011;19080;51.750;5.888;2023-06-04T02:28:47;2.40;;;1.67;;
32319;SDS011;19080;51.750;5.888;2023-06-04T02:31:14;4.15;;;2.10;;
32319;SDS011;19080;51.750;5.888;2023-06-04T02:33:41;4.93;;;1.88;;
32319;SDS011;19080;51.750;5.888;2023-06-04T02:36:08;3.78;;;2.35;;
32319;SDS011;19080;51.750;5.888;2023-06-04T02:38:35;2.78;;;2.13;;
32319;SDS011;19080;51.750;5.888;2023-06-04T02:41:02;3.78;;;2.13;;
32319;SDS011;19080;51.750;5.888;2023-06-04T02:43:28;3.10;;;1.90;;
32319;SDS011;19080;51.750;5.888;2023-06-04T02:45:55;3.90;;;1.92;;
32319;SDS011;19080;51.750;5.888;2023-06-04T02:48:22;5.82;;;1.95;;
32319;SDS011;19080;51.750;5.888;2023-06-04T02:50:48;2.75;;;1.80;;
32319;SDS011;19080;51.750;5.888;2023-06-04T02:53:15;3.60;;;2.00;;
32319;SDS011;19080;51.750;5.888;2023-06-04T02:55:42;2.85;;;1.83;;
32319;SDS011;19080;51.750;5.888;2023-06-04T02:58:09;2.25;;;1.75;;
32319;SDS011;19080;51.750;5.888;2023-06-04T03:00:36;2.90;;;1.65;;
32319;SDS011;19080;51.750;5.888;2023-06-04T03:03:02;3.85;;;1.75;;
32319;SDS011;19080;51.750;5.888;2023-06-04T03:05:44;7.57;;;2.53;;
32319;SDS011;19080;51.750;5.888;2023-06-04T03:08:11;4.30;;;1.95;;
32319;SDS011;19080;51.750;5.888;2023-06-04T03:10:38;4.97;;;2.25;;
32319;SDS011;19080;51.750;5.888;2023-06-04T03:13:04;7.05;;;2.13;;
32319;SDS011;19080;51.750;5.888;2023-06-04T03:15:31;5.78;;;2.47;;
32319;SDS011;19080;51.750;5.888;2023-06-04T03:17:58;2.95;;;1.95;;
32319;SDS011;19080;51.750;5.888;2023-06-04T03:20:26;4.25;;;2.03;;
32319;SDS011;19080;51.750;5.888;2023-06-04T03:22:52;6.45;;;2.08;;
32319;SDS011;19080;51.750;5.888;2023-06-04T03:25:19;3.38;;;1.95;;
32319;SDS011;19080;51.750;5.888;2023-06-04T03:27:46;4.03;;;1.90;;
32319;SDS011;19080;51.750;5.888;2023-06-04T03:30:13;5.57;;;2.25;;
32319;SDS011;19080;51.750;5.888;2023-06-04T03:32:59;3.00;;;1.88;;
32319;SDS011;19080;51.750;5.888;2023-06-04T03:35:26;6.18;;;2.63;;
32319;SDS011;19080;51.750;5.888;2023-06-04T03:37:53;2.60;;;2.17;;
32319;SDS011;19080;51.750;5.888;2023-06-04T03:40:20;5.10;;;2.22;;
32319;SDS011;19080;51.750;5.888;2023-06-04T03:42:48;4.82;;;2.17;;
32319;SDS011;19080;51.750;5.888;2023-06-04T03:45:17;4.53;;;1.85;;
32319;SDS011;19080;51.750;5.888;2023-06-04T03:47:44;3.45;;;1.80;;
32319;SDS011;19080;51.750;5.888;2023-06-04T03:50:12;2.85;;;1.90;;
32319;SDS011;19080;51.750;5.888;2023-06-04T03:52:41;6.38;;;2.13;;
32319;SDS011;19080;51.750;5.888;2023-06-04T03:55:07;5.90;;;2.53;;
32319;SDS011;19080;51.750;5.888;2023-06-04T03:57:35;3.13;;;2.20;;
32319;SDS011;19080;51.750;5.888;2023-06-04T04:00:06;5.28;;;2.47;;
32319;SDS011;19080;51.750;5.888;2023-06-04T04:02:41;3.33;;;2.35;;
32319;SDS011;19080;51.750;5.888;2023-06-04T04:05:17;2.83;;;2.15;;
32319;SDS011;19080;51.750;5.888;2023-06-04T04:07:46;2.75;;;2.00;;
32319;SDS011;19080;51.750;5.888;2023-06-04T04:10:16;4.40;;;2.40;;
32319;SDS011;19080;51.750;5.888;2023-06-04T04:12:42;5.05;;;2.10;;
32319;SDS011;19080;51.750;5.888;2023-06-04T04:15:09;2.67;;;2.17;;
32319;SDS011;19080;51.750;5.888;2023-06-04T04:17:36;3.67;;;2.28;;
32319;SDS011;19080;51.750;5.888;2023-06-04T04:20:03;3.13;;;2.33;;
32319;SDS011;19080;51.750;5.888;2023-06-04T04:22:34;5.15;;;1.95;;
32319;SDS011;19080;51.750;5.888;2023-06-04T04:25:01;3.08;;;1.98;;
32319;SDS011;19080;51.750;5.888;2023-06-04T04:27:28;4.95;;;1.90;;
32319;SDS011;19080;51.750;5.888;2023-06-04T04:29:57;5.65;;;2.33;;
32319;SDS011;19080;51.750;5.888;2023-06-04T04:32:29;3.97;;;2.15;;
32319;SDS011;19080;51.750;5.888;2023-06-04T04:34:57;4.88;;;2.30;;
32319;SDS011;19080;51.750;5.888;2023-06-04T04:37:31;3.83;;;2.40;;
32319;SDS011;19080;51.750;5.888;2023-06-04T04:39:58;4.20;;;2.28;;
32319;SDS011;19080;51.750;5.888;2023-06-04T04:42:29;5.22;;;2.28;;
32319;SDS011;19080;51.750;5.888;2023-06-04T04:44:56;5.10;;;2.40;;
32319;SDS011;19080;51.750;5.888;2023-06-04T04:47:25;6.22;;;2.47;;
32319;SDS011;19080;51.750;5.888;2023-06-04T04:49:52;4.13;;;2.08;;
32319;SDS011;19080;51.750;5.888;2023-06-04T04:52:19;3.90;;;2.00;;
32319;SDS011;19080;51.750;5.888;2023-06-04T04:54:46;5.65;;;2.55;;
32319;SDS011;19080;51.750;5.888;2023-06-04T04:57:13;7.40;;;2.10;;
32319;SDS011;19080;51.750;5.888;2023-06-04T04:59:44;3.92;;;2.40;;
32319;SDS011;19080;51.750;5.888;2023-06-04T05:02:11;5.65;;;2.15;;
32319;SDS011;19080;51.750;5.888;2023-06-04T05:04:38;3.55;;;2.58;;
32319;SDS011;19080;51.750;5.888;2023-06-04T05:07:05;9.30;;;2.33;;
32319;SDS011;19080;51.750;5.888;2023-06-04T05:09:32;4.75;;;2.63;;
32319;SDS011;19080;51.750;5.888;2023-06-04T05:11:58;6.32;;;2.90;;
32319;SDS011;19080;51.750;5.888;2023-06-04T05:14:26;5.32;;;2.70;;
32319;SDS011;19080;51.750;5.888;2023-06-04T05:16:53;3.25;;;2.22;;
32319;SDS011;19080;51.750;5.888;2023-06-04T05:19:22;5.38;;;2.70;;
32319;SDS011;19080;51.750;5.888;2023-06-04T05:21:50;5.13;;;2.55;;
32319;SDS011;19080;51.750;5.888;2023-06-04T05:24:17;7.55;;;2.60;;
32319;SDS011;19080;51.750;5.888;2023-06-04T05:26:44;4.15;;;2.35;;
32319;SDS011;19080;51.750;5.888;2023-06-04T05:29:16;8.07;;;2.88;;
32319;SDS011;19080;51.750;5.888;2023-06-04T05:31:45;3.60;;;2.47;;
32319;SDS011;19080;51.750;5.888;2023-06-04T05:34:14;6.15;;;2.67;;
32319;SDS011;19080;51.750;5.888;2023-06-04T05:36:45;5.70;;;2.55;;
32319;SDS011;19080;51.750;5.888;2023-06-04T05:39:12;3.50;;;2.40;;
32319;SDS011;19080;51.750;5.888;2023-06-04T05:41:47;5.05;;;2.83;;
32319;SDS011;19080;51.750;5.888;2023-06-04T05:44:14;4.43;;;2.55;;
32319;SDS011;19080;51.750;5.888;2023-06-04T05:46:41;6.35;;;2.80;;
32319;SDS011;19080;51.750;5.888;2023-06-04T05:49:09;5.35;;;2.47;;
32319;SDS011;19080;51.750;5.888;2023-06-04T05:51:35;5.63;;;2.65;;
32319;SDS011;19080;51.750;5.888;2023-06-04T05:54:02;5.28;;;2.50;;
32319;SDS011;19080;51.750;5.888;2023-06-04T05:56:32;6.85;;;2.53;;
32319;SDS011;19080;51.750;5.888;2023-06-04T05:58:59;7.43;;;2.47;;
32319;SDS011;19080;51.750;5.888;2023-06-04T06:01:26;5.50;;;2.20;;
32319;SDS011;19080;51.750;5.888;2023-06-04T06:03:54;6.97;;;2.45;;
32319;SDS011;19080;51.750;5.888;2023-06-04T06:06:24;3.20;;;2.40;;
32319;SDS011;19080;51.750;5.888;2023-06-04T06:08:51;5.53;;;2.40;;
32319;SDS011;19080;51.750;5.888;2023-06-04T06:11:19;6.30;;;2.53;;
32319;SDS011;19080;51.750;5.888;2023-06-04T06:13:46;6.43;;;2.25;;
32319;SDS011;19080;51.750;5.888;2023-06-04T06:16:13;3.75;;;2.28;;
32319;SDS011;19080;51.750;5.888;2023-06-04T06:18:40;4.72;;;2.60;;
32319;SDS011;19080;51.750;5.888;2023-06-04T06:21:07;5.40;;;2.50;;
32319;SDS011;19080;51.750;5.888;2023-06-04T06:23:35;3.13;;;2.60;;
32319;SDS011;19080;51.750;5.888;2023-06-04T06:26:02;5.80;;;2.65;;
32319;SDS011;19080;51.750;5.888;2023-06-04T06:28:32;3.53;;;1.98;;
32319;SDS011;19080;51.750;5.888;2023-06-04T06:30:59;4.35;;;2.28;;
32319;SDS011;19080;51.750;5.888;2023-06-04T06:33:26;2.83;;;2.40;;
32319;SDS011;19080;51.750;5.888;2023-06-04T06:35:53;2.65;;;1.90;;
32319;SDS011;19080;51.750;5.888;2023-06-04T06:38:19;3.78;;;2.30;;
32319;SDS011;19080;51.750;5.888;2023-06-04T06:40:46;2.60;;;2.13;;
32319;SDS011;19080;51.750;5.888;2023-06-04T06:43:13;4.65;;;2.35;;
32319;SDS011;19080;51.750;5.888;2023-06-04T06:45:39;5.57;;;2.33;;
32319;SDS011;19080;51.750;5.888;2023-06-04T06:48:06;2.72;;;1.83;;
32319;SDS011;19080;51.750;5.888;2023-06-04T06:50:33;5.07;;;2.20;;
32319;SDS011;19080;51.750;5.888;2023-06-04T06:53:02;1.95;;;1.70;;
32319;SDS011;19080;51.750;5.888;2023-06-04T06:55:29;2.58;;;1.90;;
32319;SDS011;19080;51.750;5.888;2023-06-04T06:57:56;2.60;;;2.00;;
32319;SDS011;19080;51.750;5.888;2023-06-04T07:00:23;3.88;;;2.00;;
32319;SDS011;19080;51.750;5.888;2023-06-04T07:02:50;4.88;;;2.53;;
32319;SDS011;19080;51.750;5.888;2023-06-04T07:05:17;1.92;;;1.65;;
32319;SDS011;19080;51.750;5.888;2023-06-04T07:07:43;4.72;;;2.20;;
32319;SDS011;19080;51.750;5.888;2023-06-04T07:10:10;2.38;;;1.92;;
32319;SDS011;19080;51.750;5.888;2023-06-04T07:12:37;4.40;;;2.35;;
32319;SDS011;19080;51.750;5.888;2023-06-04T07:15:08;3.17;;;2.15;;
32319;SDS011;19080;51.750;5.888;2023-06-04T07:17:35;3.67;;;2.10;;
32319;SDS011;19080;51.750;5.888;2023-06-04T07:20:02;3.55;;;2.42;;
32319;SDS011;19080;51.750;5.888;2023-06-04T07:22:33;2.90;;;1.85;;
32319;SDS011;19080;51.750;5.888;2023-06-04T07:25:00;4.07;;;2.05;;
32319;SDS011;19080;51.750;5.888;2023-06-04T07:27:27;5.25;;;2.30;;
32319;SDS011;19080;51.750;5.888;2023-06-04T07:29:54;3.45;;;2.47;;
32319;SDS011;19080;51.750;5.888;2023-06-04T07:32:21;5.80;;;2.45;;
32319;SDS011;19080;51.750;5.888;2023-06-04T07:34:47;4.45;;;2.38;;
32319;SDS011;19080;51.750;5.888;2023-06-04T07:37:14;5.15;;;2.40;;
32319;SDS011;19080;51.750;5.888;2023-06-04T07:39:41;6.18;;;2.33;;
32319;SDS011;19080;51.750;5.888;2023-06-04T07:42:08;4.05;;;2.42;;
32319;SDS011;19080;51.750;5.888;2023-06-04T07:44:36;4.85;;;2.45;;
32319;SDS011;19080;51.750;5.888;2023-06-04T07:47:03;3.38;;;1.80;;
32319;SDS011;19080;51.750;5.888;2023-06-04T07:49:32;6.00;;;2.47;;
32319;SDS011;19080;51.750;5.888;2023-06-04T07:51:58;6.20;;;1.95;;
32319;SDS011;19080;51.750;5.888;2023-06-04T07:54:25;3.90;;;2.10;;
32319;SDS011;19080;51.750;5.888;2023-06-04T07:56:52;2.83;;;1.85;;
32319;SDS011;19080;51.750;5.888;2023-06-04T07:59:22;2.53;;;2.00;;
32319;SDS011;19080;51.750;5.888;2023-06-04T08:01:49;8.52;;;2.28;;
32319;SDS011;19080;51.750;5.888;2023-06-04T08:04:18;3.00;;;2.10;;
32319;SDS011;19080;51.750;5.888;2023-06-04T08:06:45;2.70;;;2.13;;
32319;SDS011;19080;51.750;5.888;2023-06-04T08:09:12;4.32;;;2.10;;
32319;SDS011;19080;51.750;5.888;2023-06-04T08:11:41;3.28;;;2.40;;
32319;SDS011;19080;51.750;5.888;2023-06-04T08:14:11;4.83;;;2.20;;
32319;SDS011;19080;51.750;5.888;2023-06-04T08:16:39;3.40;;;2.17;;
32319;SDS011;19080;51.750;5.888;2023-06-04T08:19:07;2.22;;;2.03;;
32319;SDS011;19080;51.750;5.888;2023-06-04T08:21:34;3.38;;;2.08;;
32319;SDS011;19080;51.750;5.888;2023-06-04T08:24:01;2.53;;;1.90;;
32319;SDS011;19080;51.750;5.888;2023-06-04T08:26:28;3.85;;;2.40;;
32319;SDS011;19080;51.750;5.888;2023-06-04T08:28:55;2.92;;;1.63;;
32319;SDS011;19080;51.750;5.888;2023-06-04T08:31:22;4.35;;;1.95;;
32319;SDS011;19080;51.750;5.888;2023-06-04T08:33:49;4.75;;;1.98;;
32319;SDS011;19080;51.750;5.888;2023-06-04T08:36:15;7.38;;;2.15;;
32319;SDS011;19080;51.750;5.888;2023-06-04T08:38:42;2.38;;;1.80;;
32319;SDS011;19080;51.750;5.888;2023-06-04T08:41:20;5.85;;;2.17;;
32319;SDS011;19080;51.750;5.888;2023-06-04T08:43:55;4.63;;;1.70;;
32319;SDS011;19080;51.750;5.888;2023-06-04T08:48:55;4.15;;;2.30;;
32319;SDS011;19080;51.750;5.888;2023-06-04T08:51:26;4.32;;;2.00;;
32319;SDS011;19080;51.750;5.888;2023-06-04T08:53:53;3.67;;;1.92;;
32319;SDS011;19080;51.750;5.888;2023-06-04T08:56:23;2.80;;;1.60;;
32319;SDS011;19080;51.750;5.888;2023-06-04T08:58:50;3.50;;;1.90;;
32319;SDS011;19080;51.750;5.888;2023-06-04T09:01:18;3.15;;;1.92;;
32319;SDS011;19080;51.750;5.888;2023-06-04T09:03:44;2.85;;;1.63;;
32319;SDS011;19080;51.750;5.888;2023-06-04T09:06:12;3.30;;;1.80;;
32319;SDS011;19080;51.750;5.888;2023-06-04T09:08:39;2.05;;;1.50;;
32319;SDS011;19080;51.750;5.888;2023-06-04T09:11:13;8.50;;;1.90;;
32319;SDS011;19080;51.750;5.888;2023-06-04T09:13:41;4.78;;;1.80;;
32319;SDS011;19080;51.750;5.888;2023-06-04T09:16:11;4.15;;;1.90;;
32319;SDS011;19080;51.750;5.888;2023-06-04T09:18:38;7.68;;;1.80;;
32319;SDS011;19080;51.750;5.888;2023-06-04T09:21:06;2.45;;;1.58;;
32319;SDS011;19080;51.750;5.888;2023-06-04T09:23:57;2.90;;;1.70;;
32319;SDS011;19080;51.750;5.888;2023-06-04T09:26:21;4.30;;;1.75;;
32319;SDS011;19080;51.750;5.888;2023-06-04T09:28:48;2.17;;;1.40;;
32319;SDS011;19080;51.750;5.888;2023-06-04T09:31:15;1.45;;;1.35;;
32319;SDS011;19080;51.750;5.888;2023-06-04T09:36:16;2.10;;;1.38;;
32319;SDS011;19080;51.750;5.888;2023-06-04T09:38:43;4.03;;;1.45;;
32319;SDS011;19080;51.750;5.888;2023-06-04T09:41:14;4.95;;;1.17;;
32319;SDS011;19080;51.750;5.888;2023-06-04T09:43:42;4.00;;;1.52;;
32319;SDS011;19080;51.750;5.888;2023-06-04T09:46:10;2.15;;;1.42;;
32319;SDS011;19080;51.750;5.888;2023-06-04T09:48:38;1.92;;;1.00;;
32319;SDS011;19080;51.750;5.888;2023-06-04T09:51:10;4.05;;;1.50;;
32319;SDS011;19080;51.750;5.888;2023-06-04T09:53:38;4.45;;;1.30;;
32319;SDS011;19080;51.750;5.888;2023-06-04T09:56:06;3.10;;;1.13;;
32319;SDS011;19080;51.750;5.888;2023-06-04T09:58:34;4.35;;;1.30;;
32319;SDS011;19080;51.750;5.888;2023-06-04T10:01:03;3.38;;;1.27;;
32319;SDS011;19080;51.750;5.888;2023-06-04T10:03:35;4.43;;;1.10;;
32319;SDS011;19080;51.750;5.888;2023-06-04T10:06:04;5.70;;;1.52;;
32319;SDS011;19080;51.750;5.888;2023-06-04T10:08:31;2.75;;;1.20;;
32319;SDS011;19080;51.750;5.888;2023-06-04T10:11:01;2.42;;;1.20;;
32319;SDS011;19080;51.750;5.888;2023-06-04T10:13:29;2.60;;;1.20;;
32319;SDS011;19080;51.750;5.888;2023-06-04T10:15:58;2.60;;;1.40;;
32319;SDS011;19080;51.750;5.888;2023-06-04T10:18:28;2.28;;;1.30;;
32319;SDS011;19080;51.750;5.888;2023-06-04T10:20:56;4.03;;;1.27;;
32319;SDS011;19080;51.750;5.888;2023-06-04T10:23:23;3.22;;;1.10;;
32319;SDS011;19080;51.750;5.888;2023-06-04T10:25:51;1.45;;;1.25;;
32319;SDS011;19080;51.750;5.888;2023-06-04T10:28:19;3.53;;;1.38;;
32319;SDS011;19080;51.750;5.888;2023-06-04T10:30:47;0.80;;;0.80;;
32319;SDS011;19080;51.750;5.888;2023-06-04T10:33:20;1.85;;;1.20;;
32319;SDS011;19080;51.750;5.888;2023-06-04T10:35:53;1.75;;;0.85;;
32319;SDS011;19080;51.750;5.888;2023-06-04T10:38:20;1.75;;;0.85;;
32319;SDS011;19080;51.750;5.888;2023-06-04T10:40:48;2.63;;;0.82;;
32319;SDS011;19080;51.750;5.888;2023-06-04T10:43:15;1.90;;;1.00;;
32319;SDS011;19080;51.750;5.888;2023-06-04T10:45:44;7.53;;;1.23;;
32319;SDS011;19080;51.750;5.888;2023-06-04T10:48:12;4.00;;;1.30;;
32319;SDS011;19080;51.750;5.888;2023-06-04T10:50:49;2.55;;;1.02;;
32319;SDS011;19080;51.750;5.888;2023-06-04T10:53:18;1.85;;;1.17;;
32319;SDS011;19080;51.750;5.888;2023-06-04T10:55:48;3.08;;;1.20;;
32319;SDS011;19080;51.750;5.888;2023-06-04T10:58:16;2.75;;;0.85;;
32319;SDS011;19080;51.750;5.888;2023-06-04T11:00:44;2.15;;;1.00;;
32319;SDS011;19080;51.750;5.888;2023-06-04T11:03:13;2.92;;;1.00;;
32319;SDS011;19080;51.750;5.888;2023-06-04T11:05:41;1.98;;;1.05;;
32319;SDS011;19080;51.750;5.888;2023-06-04T11:08:09;3.10;;;0.95;;
32319;SDS011;19080;51.750;5.888;2023-06-04T11:10:38;3.42;;;0.77;;
32319;SDS011;19080;51.750;5.888;2023-06-04T11:13:06;2.45;;;0.98;;
32319;SDS011;19080;51.750;5.888;2023-06-04T11:15:43;3.47;;;1.10;;
32319;SDS011;19080;51.750;5.888;2023-06-04T11:18:15;2.08;;;1.05;;
32319;SDS011;19080;51.750;5.888;2023-06-04T11:20:47;2.65;;;1.20;;
32319;SDS011;19080;51.750;5.888;2023-06-04T11:23:15;1.27;;;1.05;;
32319;SDS011;19080;51.750;5.888;2023-06-04T11:25:43;1.00;;;0.90;;
32319;SDS011;19080;51.750;5.888;2023-06-04T11:28:16;1.00;;;1.00;;
32319;SDS011;19080;51.750;5.888;2023-06-04T11:31:01;1.30;;;1.15;;
32319;SDS011;19080;51.750;5.888;2023-06-04T11:33:30;1.27;;;0.90;;
32319;SDS011;19080;51.750;5.888;2023-06-04T11:35:57;1.40;;;1.05;;
32319;SDS011;19080;51.750;5.888;2023-06-04T11:38:24;3.58;;;1.15;;
32319;SDS011;19080;51.750;5.888;2023-06-04T11:40:57;2.03;;;1.17;;
32319;SDS011;19080;51.750;5.888;2023-06-04T11:43:26;1.52;;;0.98;;
32319;SDS011;19080;51.750;5.888;2023-06-04T11:45:54;2.55;;;0.93;;
32319;SDS011;19080;51.750;5.888;2023-06-04T11:48:21;2.97;;;1.00;;
32319;SDS011;19080;51.750;5.888;2023-06-04T11:50:49;1.42;;;1.10;;
32319;SDS011;19080;51.750;5.888;2023-06-04T11:53:16;1.60;;;1.10;;
32319;SDS011;19080;51.750;5.888;2023-06-04T11:55:43;1.27;;;1.00;;
32319;SDS011;19080;51.750;5.888;2023-06-04T11:58:10;1.33;;;0.80;;
32319;SDS011;19080;51.750;5.888;2023-06-04T12:00:38;1.50;;;1.17;;
32319;SDS011;19080;51.750;5.888;2023-06-04T12:03:04;2.20;;;0.95;;
32319;SDS011;19080;51.750;5.888;2023-06-04T12:05:31;1.80;;;1.02;;
32319;SDS011;19080;51.750;5.888;2023-06-04T12:10:36;3.38;;;1.10;;
32319;SDS011;19080;51.750;5.888;2023-06-04T12:13:07;2.05;;;1.05;;
32319;SDS011;19080;51.750;5.888;2023-06-04T12:15:34;2.10;;;1.17;;
32319;SDS011;19080;51.750;5.888;2023-06-04T12:18:00;1.80;;;1.00;;
32319;SDS011;19080;51.750;5.888;2023-06-04T12:20:33;5.90;;;0.90;;
32319;SDS011;19080;51.750;5.888;2023-06-04T12:23:02;2.05;;;1.33;;
32319;SDS011;19080;51.750;5.888;2023-06-04T12:25:30;1.05;;;0.90;;
32319;SDS011;19080;51.750;5.888;2023-06-04T12:27:57;3.45;;;1.15;;
32319;SDS011;19080;51.750;5.888;2023-06-04T12:30:34;3.25;;;0.98;;
32319;SDS011;19080;51.750;5.888;2023-06-04T12:33:04;1.98;;;1.10;;
32319;SDS011;19080;51.750;5.888;2023-06-04T12:35:31;1.95;;;1.10;;
32319;SDS011;19080;51.750;5.888;2023-06-04T12:37:59;2.67;;;1.45;;
32319;SDS011;19080;51.750;5.888;2023-06-04T12:40:26;2.60;;;1.10;;
32319;SDS011;19080;51.750;5.888;2023-06-04T12:42:53;1.30;;;1.00;;
32319;SDS011;19080;51.750;5.888;2023-06-04T12:45:19;1.52;;;0.90;;
32319;SDS011;19080;51.750;5.888;2023-06-04T12:47:46;3.22;;;1.30;;
32319;SDS011;19080;51.750;5.888;2023-06-04T12:50:13;1.27;;;1.10;;
32319;SDS011;19080;51.750;5.888;2023-06-04T12:52:40;4.88;;;1.48;;
32319;SDS011;19080;51.750;5.888;2023-06-04T12:55:07;2.20;;;1.08;;
32319;SDS011;19080;51.750;5.888;2023-06-04T12:57:34;1.58;;;0.90;;
32319;SDS011;19080;51.750;5.888;2023-06-04T13:00:01;4.55;;;1.00;;
32319;SDS011;19080;51.750;5.888;2023-06-04T13:02:30;2.42;;;1.33;;
32319;SDS011;19080;51.750;5.888;2023-06-04T13:04:57;1.83;;;1.13;;
32319;SDS011;19080;51.750;5.888;2023-06-04T13:07:24;2.03;;;1.35;;
32319;SDS011;19080;51.750;5.888;2023-06-04T13:09:54;1.60;;;1.25;;
32319;SDS011;19080;51.750;5.888;2023-06-04T13:12:21;1.83;;;1.00;;
32319;SDS011;19080;51.750;5.888;2023-06-04T13:14:48;1.85;;;1.20;;
32319;SDS011;19080;51.750;5.888;2023-06-04T13:17:14;1.88;;;1.00;;
32319;SDS011;19080;51.750;5.888;2023-06-04T13:19:48;2.50;;;1.20;;
32319;SDS011;19080;51.750;5.888;2023-06-04T13:22:15;1.10;;;0.70;;
32319;SDS011;19080;51.750;5.888;2023-06-04T13:24:42;3.22;;;1.08;;
32319;SDS011;19080;51.750;5.888;2023-06-04T13:27:10;5.82;;;1.30;;
32319;SDS011;19080;51.750;5.888;2023-06-04T13:29:36;3.58;;;1.27;;
32319;SDS011;19080;51.750;5.888;2023-06-04T13:32:03;2.40;;;1.23;;
32319;SDS011;19080;51.750;5.888;2023-06-04T13:34:31;4.07;;;1.27;;
32319;SDS011;19080;51.750;5.888;2023-06-04T13:36:58;3.67;;;1.50;;
32319;SDS011;19080;51.750;5.888;2023-06-04T13:39:25;2.05;;;1.10;;
32319;SDS011;19080;51.750;5.888;2023-06-04T13:41:51;3.25;;;1.30;;
32319;SDS011;19080;51.750;5.888;2023-06-04T13:44:18;2.20;;;1.00;;
32319;SDS011;19080;51.750;5.888;2023-06-04T13:46:46;3.15;;;1.55;;
32319;SDS011;19080;51.750;5.888;2023-06-04T13:49:13;1.92;;;1.20;;
32319;SDS011;19080;51.750;5.888;2023-06-04T13:51:39;4.00;;;1.48;;
32319;SDS011;19080;51.750;5.888;2023-06-04T13:54:07;3.33;;;1.40;;
32319;SDS011;19080;51.750;5.888;2023-06-04T13:56:35;4.80;;;1.40;;
32319;SDS011;19080;51.750;5.888;2023-06-04T13:59:02;1.30;;;1.15;;
32319;SDS011;19080;51.750;5.888;2023-06-04T14:01:28;2.83;;;1.33;;
32319;SDS011;19080;51.750;5.888;2023-06-04T14:03:56;3.95;;;1.08;;
32319;SDS011;19080;51.750;5.888;2023-06-04T14:06:25;2.78;;;1.30;;
32319;SDS011;19080;51.750;5.888;2023-06-04T14:08:51;4.70;;;1.13;;
32319;SDS011;19080;51.750;5.888;2023-06-04T14:11:18;3.20;;;1.35;;
32319;SDS011;19080;51.750;5.888;2023-06-04T14:13:45;2.28;;;1.27;;
32319;SDS011;19080;51.750;5.888;2023-06-04T14:16:12;1.17;;;1.08;;
32319;SDS011;19080;51.750;5.888;2023-06-04T14:18:39;2.78;;;1.63;;
32319;SDS011;19080;51.750;5.888;2023-06-04T14:21:06;3.60;;;1.52;;
32319;SDS011;19080;51.750;5.888;2023-06-04T14:23:33;6.53;;;1.67;;
32319;SDS011;19080;51.750;5.888;2023-06-04T14:26:00;4.28;;;1.33;;
32319;SDS011;19080;51.750;5.888;2023-06-04T14:28:27;3.83;;;1.33;;
32319;SDS011;19080;51.750;5.888;2023-06-04T14:30:54;1.33;;;1.20;;
32319;SDS011;19080;51.750;5.888;2023-06-04T14:33:21;2.70;;;1.30;;
32319;SDS011;19080;51.750;5.888;2023-06-04T14:35:47;2.05;;;1.50;;
32319;SDS011;19080;51.750;5.888;2023-06-04T14:38:14;2.38;;;1.55;;
32319;SDS011;19080;51.750;5.888;2023-06-04T14:40:41;1.75;;;1.20;;
32319;SDS011;19080;51.750;5.888;2023-06-04T14:43:13;1.30;;;1.20;;
32319;SDS011;19080;51.750;5.888;2023-06-04T14:45:40;2.42;;;1.10;;
32319;SDS011;19080;51.750;5.888;2023-06-04T14:48:06;3.45;;;1.42;;
32319;SDS011;19080;51.750;5.888;2023-06-04T14:50:42;1.83;;;1.10;;
32319;SDS011;19080;51.750;5.888;2023-06-04T14:53:09;2.72;;;1.20;;
32319;SDS011;19080;51.750;5.888;2023-06-04T14:55:36;2.08;;;1.45;;
32319;SDS011;19080;51.750;5.888;2023-06-04T14:58:02;2.83;;;1.15;;
32319;SDS011;19080;51.750;5.888;2023-06-04T15:00:30;1.40;;;1.25;;
32319;SDS011;19080;51.750;5.888;2023-06-04T15:02:57;2.75;;;1.20;;
32319;SDS011;19080;51.750;5.888;2023-06-04T15:05:24;3.05;;;1.27;;